createdAt,value
2018-09-18T00:00:08.653Z,6.80
2018-09-18T00:02:37.000Z,9.13
2018-09-18T00:05:05.280Z,6.50
2018-09-18T00:07:33.585Z,8.40
2018-09-18T00:10:01.864Z,9.27
2018-09-18T00:12:30.140Z,10.97
2018-09-18T00:14:58.444Z,12.67
2018-09-18T00:17:26.813Z,7.00
2018-09-18T00:19:55.080Z,7.93
2018-09-18T00:22:23.653Z,7.23
2018-09-18T00:24:51.923Z,8.33
2018-09-18T00:27:20.299Z,7.20
2018-09-18T00:29:48.601Z,7.93
2018-09-18T00:32:17.009Z,7.67
2018-09-18T00:34:45.289Z,7.13
2018-09-18T00:37:13.618Z,7.50
2018-09-18T00:39:41.889Z,8.10
2018-09-18T00:42:10.321Z,7.20
2018-09-18T00:44:38.604Z,8.03
2018-09-18T00:47:06.895Z,8.93
2018-09-18T00:49:35.176Z,7.43
2018-09-18T00:52:03.489Z,7.80
2018-09-18T00:54:31.758Z,9.13
2018-09-18T00:57:00.040Z,6.83
2018-09-18T00:59:28.360Z,7.17
2018-09-18T01:01:56.647Z,6.53
2018-09-18T01:04:24.996Z,7.30
2018-09-18T01:06:53.548Z,7.47
2018-09-18T01:09:28.456Z,7.17
2018-09-18T01:11:56.816Z,7.67
2018-09-18T01:14:25.149Z,7.17
2018-09-18T01:16:53.427Z,8.37
2018-09-18T01:19:21.801Z,7.30
2018-09-18T01:21:50.072Z,7.43
2018-09-18T01:24:18.349Z,9.77
2018-09-18T01:26:46.663Z,7.60
2018-09-18T01:29:14.953Z,9.27
2018-09-18T01:31:43.228Z,6.80
2018-09-18T01:34:11.537Z,7.70
2018-09-18T01:36:39.799Z,6.90
2018-09-18T01:39:08.669Z,6.70
2018-09-18T01:41:37.040Z,12.53
2018-09-18T01:44:05.313Z,7.63
2018-09-18T01:46:33.596Z,7.63
2018-09-18T01:49:01.888Z,7.87
2018-09-18T01:51:30.300Z,7.67
2018-09-18T01:53:58.602Z,7.63
2018-09-18T01:56:27.273Z,7.77
2018-09-18T01:58:55.549Z,8.10
2018-09-18T02:01:23.828Z,7.37
2018-09-18T02:03:52.136Z,8.93
2018-09-18T02:06:20.604Z,7.70
2018-09-18T02:08:49.076Z,7.70
2018-09-18T02:11:17.632Z,6.90
2018-09-18T02:13:45.949Z,7.93
2018-09-18T02:16:14.241Z,8.03
2018-09-18T02:18:42.544Z,7.83
2018-09-18T02:21:10.828Z,8.00
2018-09-18T02:23:39.100Z,7.60
2018-09-18T02:26:07.883Z,8.63
2018-09-18T02:28:36.144Z,7.00
2018-09-18T02:31:04.432Z,7.17
2018-09-18T02:33:32.988Z,7.40
2018-09-18T02:36:01.441Z,7.83
2018-09-18T02:38:29.717Z,7.57
2018-09-18T02:40:58.360Z,8.00
2018-09-18T02:43:26.633Z,7.70
2018-09-18T02:45:54.900Z,8.00
2018-09-18T02:48:23.233Z,8.77
2018-09-18T02:50:51.512Z,8.37
2018-09-18T02:53:19.826Z,7.43
2018-09-18T02:55:48.125Z,7.80
2018-09-18T02:58:16.421Z,8.10
2018-09-18T03:00:44.704Z,7.93
2018-09-18T03:03:13.004Z,8.13
2018-09-18T03:05:41.275Z,7.80
2018-09-18T03:08:09.569Z,8.13
2018-09-18T03:10:37.868Z,7.60
2018-09-18T03:13:06.141Z,7.93
2018-09-18T03:15:34.416Z,8.57
2018-09-18T03:18:02.716Z,8.50
2018-09-18T03:20:31.001Z,8.77
2018-09-18T03:22:59.313Z,8.60
2018-09-18T03:25:27.616Z,8.00
2018-09-18T03:27:56.344Z,8.60
2018-09-18T03:30:24.644Z,8.20
2018-09-18T03:32:52.975Z,8.23
2018-09-18T03:35:21.291Z,9.03
2018-09-18T03:37:49.565Z,8.23
2018-09-18T03:40:17.912Z,8.07
2018-09-18T03:42:46.180Z,8.13
2018-09-18T03:45:14.464Z,8.83
2018-09-18T03:47:43.244Z,11.23
2018-09-18T03:50:11.512Z,10.40
2018-09-18T03:52:39.782Z,9.00
2018-09-18T03:55:08.200Z,10.07
2018-09-18T03:57:36.472Z,9.40
2018-09-18T04:00:04.816Z,8.80
2018-09-18T04:02:33.108Z,8.17
2018-09-18T04:05:01.556Z,11.70
2018-09-18T04:07:29.864Z,8.20
2018-09-18T04:09:58.172Z,8.83
2018-09-18T04:12:26.464Z,10.00
2018-09-18T04:14:54.746Z,9.30
2018-09-18T04:17:23.607Z,9.13
2018-09-18T04:19:51.896Z,11.63
2018-09-18T04:22:20.180Z,8.03
2018-09-18T04:24:48.466Z,9.20
2018-09-18T04:27:17.755Z,8.87
2018-09-18T04:29:46.025Z,8.60
2018-09-18T04:32:14.317Z,8.70
2018-09-18T04:34:42.595Z,9.67
2018-09-18T04:37:10.889Z,11.87
2018-09-18T04:39:39.493Z,16.90
2018-09-18T04:42:07.779Z,11.83
2018-09-18T04:44:36.044Z,10.80
2018-09-18T04:47:04.345Z,9.80
2018-09-18T04:49:32.608Z,9.43
2018-09-18T04:52:00.902Z,10.80
2018-09-18T04:54:29.210Z,9.70
2018-09-18T04:56:57.508Z,10.03
2018-09-18T04:59:25.812Z,13.60
2018-09-18T05:01:54.139Z,13.03
2018-09-18T05:04:22.876Z,10.33
2018-09-18T05:06:51.150Z,9.93
2018-09-18T05:09:19.685Z,10.40
2018-09-18T05:11:47.904Z,17.93
2018-09-18T05:14:16.195Z,15.83
2018-09-18T05:16:44.505Z,17.13
2018-09-18T05:19:12.789Z,22.37
2018-09-18T05:21:41.106Z,15.53
2018-09-18T05:24:09.409Z,11.60
2018-09-18T05:26:37.689Z,13.63
2018-09-18T05:29:05.983Z,13.13
2018-09-18T05:31:34.280Z,17.30
2018-09-18T05:34:02.572Z,16.03
2018-09-18T05:36:30.848Z,25.20
2018-09-18T05:38:59.155Z,18.37
2018-09-18T05:41:27.461Z,57.90
2018-09-18T05:43:55.745Z,156.77
2018-09-18T05:46:24.061Z,54.47
2018-09-18T05:48:52.345Z,23.80
2018-09-18T05:51:20.655Z,15.23
2018-09-18T05:53:48.968Z,9.83
2018-09-18T05:56:17.260Z,11.23
2018-09-18T05:58:45.536Z,10.70
2018-09-18T06:01:13.837Z,10.67
2018-09-18T06:03:42.341Z,13.33
2018-09-18T06:06:10.624Z,10.37
2018-09-18T06:08:38.948Z,10.60
2018-09-18T06:11:07.240Z,13.07
2018-09-18T06:13:35.625Z,18.97
2018-09-18T06:16:03.954Z,12.33
2018-09-18T06:18:32.353Z,10.03
2018-09-18T06:21:00.647Z,12.10
2018-09-18T06:23:28.968Z,20.27
2018-09-18T06:25:57.244Z,16.77
2018-09-18T06:28:25.525Z,10.70
2018-09-18T06:30:53.830Z,10.63
2018-09-18T06:33:22.148Z,13.50
2018-09-18T06:35:50.804Z,10.47
2018-09-18T06:38:19.396Z,14.47
2018-09-18T06:40:47.672Z,9.35
2018-09-18T06:43:16.081Z,9.55
2018-09-18T06:45:44.694Z,15.38
2018-09-18T06:48:13.263Z,10.15
2018-09-18T06:50:41.611Z,9.98
2018-09-18T06:53:10.132Z,15.08
2018-09-18T06:55:38.417Z,10.68
2018-09-18T06:58:06.724Z,11.73
2018-09-18T07:00:35.033Z,13.93
2018-09-18T07:03:03.333Z,12.53
2018-09-18T07:05:31.696Z,11.90
2018-09-18T07:07:59.984Z,12.00
2018-09-18T07:10:28.671Z,19.95
2018-09-18T07:12:57.076Z,13.78
2018-09-18T07:15:25.563Z,17.73
2018-09-18T07:17:53.920Z,11.65
2018-09-18T07:20:22.256Z,15.08
2018-09-18T07:22:50.652Z,12.85
2018-09-18T07:25:19.825Z,12.35
2018-09-18T07:27:48.144Z,11.12
2018-09-18T07:30:16.876Z,14.55
2018-09-18T07:32:45.188Z,11.25
2018-09-18T07:35:13.625Z,11.60
2018-09-18T07:37:41.948Z,11.28
2018-09-18T07:40:10.236Z,12.18
2018-09-18T07:42:38.528Z,11.45
2018-09-18T07:45:06.907Z,11.38
2018-09-18T07:47:35.194Z,12.20
2018-09-18T07:50:03.521Z,10.55
2018-09-18T07:52:32.377Z,13.85
2018-09-18T07:55:00.677Z,9.75
2018-09-18T07:57:29.089Z,9.73
2018-09-18T07:59:57.401Z,11.20
2018-09-18T08:02:26.612Z,12.47
2018-09-18T08:04:54.924Z,12.45
2018-09-18T08:07:23.275Z,9.08
2018-09-18T08:09:51.600Z,11.10
2018-09-18T08:12:20.449Z,10.13
2018-09-18T08:14:49.744Z,9.80
2018-09-18T08:17:18.032Z,13.25
2018-09-18T08:19:46.476Z,8.18
2018-09-18T08:22:14.648Z,10.13
2018-09-18T08:24:43.159Z,7.87
2018-09-18T08:27:11.446Z,12.68
2018-09-18T08:29:40.094Z,11.33
2018-09-18T08:32:08.393Z,9.93
2018-09-18T08:34:36.710Z,11.73
2018-09-18T08:37:05.216Z,11.28
2018-09-18T08:39:33.578Z,9.85
2018-09-18T08:42:01.869Z,8.75
2018-09-18T08:44:30.250Z,9.53
2018-09-18T08:46:58.562Z,9.43
2018-09-18T08:49:27.982Z,9.50
2018-09-18T08:51:57.422Z,10.45
2018-09-18T08:54:25.610Z,10.45
2018-09-18T08:56:53.927Z,9.48
2018-09-18T08:59:22.395Z,9.88
2018-09-18T09:01:50.710Z,11.80
2018-09-18T09:04:18.997Z,9.60
2018-09-18T09:06:47.321Z,9.20
2018-09-18T09:09:15.764Z,13.62
2018-09-18T09:11:45.146Z,8.68
2018-09-18T09:14:13.541Z,9.18
2018-09-18T09:16:42.297Z,6.90
2018-09-18T09:19:10.888Z,8.00
2018-09-18T09:21:39.207Z,6.90
2018-09-18T09:24:07.483Z,5.65
2018-09-18T09:26:37.504Z,7.10
2018-09-18T09:29:06.085Z,6.65
2018-09-18T09:31:35.779Z,7.78
2018-09-18T09:34:04.453Z,5.78
2018-09-18T09:36:32.933Z,6.15
2018-09-18T09:39:01.220Z,8.30
2018-09-18T09:41:29.508Z,6.70
2018-09-18T09:43:57.825Z,8.78
2018-09-18T09:46:26.209Z,6.92
2018-09-18T09:48:54.497Z,5.45
2018-09-18T09:51:22.820Z,6.47
2018-09-18T09:53:51.084Z,18.45
2018-09-18T09:56:19.349Z,6.40
2018-09-18T09:58:47.648Z,9.30
2018-09-18T10:01:21.346Z,7.12
2018-09-18T10:03:49.658Z,6.67
2018-09-18T10:06:18.968Z,7.30
2018-09-18T10:08:47.254Z,6.92
2018-09-18T10:11:15.557Z,6.10
2018-09-18T10:13:43.854Z,6.55
2018-09-18T10:16:12.140Z,6.58
2018-09-18T10:18:40.458Z,6.80
2018-09-18T10:21:08.749Z,5.60
2018-09-18T10:23:37.052Z,7.80
2018-09-18T10:26:05.402Z,6.42
2018-09-18T10:28:33.717Z,5.72
2018-09-18T10:31:02.091Z,8.80
2018-09-18T10:33:30.440Z,5.95
2018-09-18T10:35:58.739Z,6.42
2018-09-18T10:38:27.057Z,7.87
2018-09-18T10:40:55.525Z,5.78
2018-09-18T10:43:23.727Z,5.20
2018-09-18T10:45:52.025Z,6.67
2018-09-18T10:48:20.356Z,4.70
2018-09-18T10:50:48.637Z,5.12
2018-09-18T10:53:16.935Z,5.67
2018-09-18T10:55:45.318Z,4.40
2018-09-18T10:58:13.673Z,6.45
2018-09-18T11:00:41.959Z,7.12
2018-09-18T11:03:10.276Z,9.05
2018-09-18T11:05:39.568Z,8.23
2018-09-18T11:08:07.843Z,6.58
2018-09-18T11:10:36.213Z,5.67
2018-09-18T11:13:04.444Z,13.93
2018-09-18T11:15:33.001Z,7.28
2018-09-18T11:18:01.253Z,4.62
2018-09-18T11:20:29.569Z,5.22
2018-09-18T11:22:57.839Z,4.00
2018-09-18T11:25:26.217Z,4.03
2018-09-18T11:27:54.439Z,5.22
2018-09-18T11:30:22.731Z,5.45
2018-09-18T11:32:51.088Z,5.22
2018-09-18T11:35:19.342Z,6.83
2018-09-18T11:37:47.617Z,4.50
2018-09-18T11:40:15.913Z,4.42
2018-09-18T11:42:44.184Z,5.85
2018-09-18T11:45:12.573Z,12.10
2018-09-18T11:47:40.927Z,10.85
2018-09-18T11:50:09.421Z,4.58
2018-09-18T11:52:37.749Z,4.70
2018-09-18T11:55:06.066Z,12.75
2018-09-18T11:57:34.877Z,4.75
2018-09-18T12:00:03.234Z,4.70
2018-09-18T12:02:31.821Z,4.85
2018-09-18T12:05:00.138Z,5.85
2018-09-18T12:07:28.418Z,6.15
2018-09-18T12:09:56.741Z,3.92
2018-09-18T12:12:25.024Z,4.05
2018-09-18T12:14:53.621Z,6.80
2018-09-18T12:17:21.925Z,5.75
2018-09-18T12:19:50.526Z,5.03
2018-09-18T12:22:18.904Z,4.50
2018-09-18T12:24:47.177Z,11.73
2018-09-18T12:27:15.521Z,5.62
2018-09-18T12:29:43.801Z,7.35
2018-09-18T12:32:12.120Z,8.13
2018-09-18T12:34:40.436Z,7.40
2018-09-18T12:37:08.912Z,5.67
2018-09-18T12:39:37.235Z,7.05
2018-09-18T12:42:05.646Z,5.62
2018-09-18T12:44:34.088Z,6.83
2018-09-18T12:47:02.542Z,9.13
2018-09-18T12:49:31.068Z,12.78
2018-09-18T12:51:59.134Z,11.83
2018-09-18T12:54:27.469Z,11.00
2018-09-18T12:56:55.842Z,10.88
2018-09-18T12:59:24.520Z,6.62
2018-09-18T13:01:52.770Z,6.95
2018-09-18T13:04:21.049Z,7.00
2018-09-18T13:06:49.417Z,25.50
2018-09-18T13:09:17.660Z,7.67
2018-09-18T13:11:45.986Z,6.08
2018-09-18T13:14:14.447Z,10.58
2018-09-18T13:16:42.734Z,7.50
2018-09-18T13:19:11.006Z,7.15
2018-09-18T13:21:39.384Z,7.03
2018-09-18T13:24:07.717Z,11.25
2018-09-18T13:26:37.214Z,7.53
2018-09-18T13:29:05.577Z,6.33
2018-09-18T13:31:37.252Z,8.00
2018-09-18T13:34:05.537Z,6.28
2018-09-18T13:36:33.963Z,8.20
2018-09-18T13:39:02.288Z,6.65
2018-09-18T13:41:30.877Z,7.15
2018-09-18T13:43:59.289Z,12.58
2018-09-18T13:46:27.696Z,6.15
2018-09-18T13:48:56.053Z,6.85
2018-09-18T13:51:24.432Z,7.72
2018-09-18T13:53:52.828Z,6.10
2018-09-18T13:56:21.251Z,87.80
2018-09-18T13:58:49.490Z,7.75
2018-09-18T14:01:18.876Z,10.25
2018-09-18T14:03:47.482Z,6.60
2018-09-18T14:06:15.888Z,5.80
2018-09-18T14:08:44.213Z,8.80
2018-09-18T14:11:12.620Z,5.80
2018-09-18T14:13:41.036Z,7.70
2018-09-18T14:16:13.856Z,4.67
2018-09-18T14:18:42.321Z,7.33
2018-09-18T14:21:11.746Z,8.30
2018-09-18T14:23:40.392Z,5.65
2018-09-18T14:26:08.730Z,5.20
2018-09-18T14:28:37.140Z,4.90
2018-09-18T14:31:05.660Z,4.75
2018-09-18T14:33:34.553Z,5.47
2018-09-18T14:36:02.929Z,17.32
2018-09-18T14:38:31.388Z,5.62
2018-09-18T14:41:00.401Z,4.50
2018-09-18T14:43:28.711Z,7.08
2018-09-18T14:45:57.075Z,10.95
2018-09-18T14:48:25.469Z,11.78
2018-09-18T14:50:53.760Z,5.50
2018-09-18T14:53:22.079Z,5.10
2018-09-18T14:55:50.372Z,7.28
2018-09-18T14:58:18.804Z,4.45
2018-09-18T15:00:47.104Z,3.92
2018-09-18T15:03:16.550Z,3.98
2018-09-18T15:05:45.017Z,3.90
2018-09-18T15:08:13.324Z,7.42
2018-09-18T15:10:42.374Z,5.62
2018-09-18T15:13:10.796Z,6.67
2018-09-18T15:15:39.354Z,8.30
2018-09-18T15:18:07.593Z,4.92
2018-09-18T15:20:35.928Z,5.33
2018-09-18T15:23:04.332Z,5.58
2018-09-18T15:25:32.628Z,5.85
2018-09-18T15:28:01.991Z,4.50
2018-09-18T15:30:30.623Z,4.78
2018-09-18T15:32:58.898Z,5.05
2018-09-18T15:35:27.177Z,4.37
2018-09-18T15:37:55.597Z,8.03
2018-09-18T15:40:23.872Z,4.60
2018-09-18T15:42:52.159Z,6.53
2018-09-18T15:45:20.461Z,6.40
2018-09-18T15:47:48.744Z,5.72
2018-09-18T15:50:17.061Z,5.53
2018-09-18T15:52:45.552Z,6.85
2018-09-18T15:55:13.858Z,4.80
2018-09-18T15:57:42.286Z,7.67
2018-09-18T16:00:10.577Z,5.95
2018-09-18T16:02:38.856Z,5.62
2018-09-18T16:05:07.171Z,5.50
2018-09-18T16:07:35.792Z,4.92
2018-09-18T16:10:04.205Z,9.73
2018-09-18T16:12:32.508Z,10.98
2018-09-18T16:15:00.830Z,4.97
2018-09-18T16:17:29.128Z,10.30
2018-09-18T16:19:57.473Z,7.45
2018-09-18T16:22:25.801Z,9.45
2018-09-18T16:24:54.114Z,13.48
2018-09-18T16:27:22.377Z,22.45
2018-09-18T16:29:50.692Z,69.53
2018-09-18T16:32:18.964Z,17.67
2018-09-18T16:34:47.254Z,14.38
2018-09-18T16:37:15.597Z,17.23
2018-09-18T16:39:43.893Z,11.25
2018-09-18T16:42:12.179Z,14.05
2018-09-18T16:44:40.492Z,16.73
2018-09-18T16:47:11.840Z,22.55
2018-09-18T16:49:41.226Z,14.50
2018-09-18T16:52:09.551Z,9.08
2018-09-18T16:54:38.028Z,16.80
2018-09-18T16:57:06.218Z,20.95
2018-09-18T16:59:34.495Z,16.52
2018-09-18T17:02:02.832Z,27.22
2018-09-18T17:04:31.110Z,16.23
2018-09-18T17:06:59.381Z,17.23
2018-09-18T17:09:28.001Z,19.80
2018-09-18T17:11:56.326Z,16.80
2018-09-18T17:14:24.721Z,22.35
2018-09-18T17:16:53.006Z,13.18
2018-09-18T17:19:21.325Z,9.08
2018-09-18T17:21:49.697Z,7.60
2018-09-18T17:24:17.980Z,13.08
2018-09-18T17:26:46.283Z,10.10
2018-09-18T17:29:14.605Z,37.55
2018-09-18T17:31:42.891Z,21.42
2018-09-18T17:34:11.286Z,22.48
2018-09-18T17:36:39.623Z,33.70
2018-09-18T17:39:09.141Z,29.70
2018-09-18T17:41:37.613Z,26.73
2018-09-18T17:44:06.167Z,24.32
2018-09-18T17:46:34.476Z,11.50
2018-09-18T17:49:02.819Z,30.62
2018-09-18T17:51:31.109Z,23.87
2018-09-18T17:53:59.399Z,33.08
2018-09-18T17:56:27.747Z,47.78
2018-09-18T17:58:56.320Z,51.88
2018-09-18T18:01:24.634Z,44.53
2018-09-18T18:03:53.330Z,56.98
2018-09-18T18:06:21.715Z,59.55
2018-09-18T18:08:50.104Z,65.45
2018-09-18T18:11:25.151Z,51.20
2018-09-18T18:13:53.504Z,45.07
2018-09-18T18:16:21.864Z,39.03
2018-09-18T18:18:50.223Z,23.60
2018-09-18T18:21:18.553Z,34.75
2018-09-18T18:23:46.900Z,35.30
2018-09-18T18:26:15.335Z,17.00
2018-09-18T18:28:43.676Z,20.70
2018-09-18T18:31:12.056Z,18.93
2018-09-18T18:33:40.585Z,23.00
2018-09-18T18:36:08.941Z,24.10
2018-09-18T18:38:37.264Z,54.27
2018-09-18T18:41:05.752Z,26.27
2018-09-18T18:43:34.157Z,18.17
2018-09-18T18:46:02.502Z,20.87
2018-09-18T18:48:31.164Z,34.03
2018-09-18T18:50:59.418Z,23.83
2018-09-18T18:53:27.745Z,20.27
2018-09-18T18:55:56.124Z,27.93
2018-09-18T18:58:24.489Z,33.00
2018-09-18T19:00:52.840Z,27.17
2018-09-18T19:03:21.184Z,22.07
2018-09-18T19:05:49.522Z,21.97
2018-09-18T19:08:17.899Z,30.07
2018-09-18T19:10:46.282Z,46.47
2018-09-18T19:13:14.639Z,37.43
2018-09-18T19:15:42.998Z,36.37
2018-09-18T19:18:11.363Z,39.93
2018-09-18T19:20:39.755Z,37.47
2018-09-18T19:23:08.171Z,37.00
2018-09-18T19:25:36.632Z,32.43
2018-09-18T19:28:05.246Z,30.80
2018-09-18T19:30:33.615Z,20.60
2018-09-18T19:33:02.174Z,29.93
2018-09-18T19:35:30.516Z,34.90
2018-09-18T19:37:58.899Z,27.43
2018-09-18T19:40:27.320Z,41.27
2018-09-18T19:42:55.711Z,24.07
2018-09-18T19:45:24.023Z,21.53
2018-09-18T19:47:52.392Z,22.63
2018-09-18T19:50:20.699Z,32.47
2018-09-18T19:52:49.176Z,26.10
2018-09-18T19:55:17.940Z,29.97
2018-09-18T19:57:46.605Z,22.07
2018-09-18T20:00:14.977Z,20.10
2018-09-18T20:02:43.462Z,20.33
2018-09-18T20:05:12.369Z,30.30
2018-09-18T20:07:40.739Z,26.13
2018-09-18T20:10:09.114Z,20.73
2018-09-18T20:12:37.432Z,18.13
2018-09-18T20:15:05.841Z,22.03
2018-09-18T20:17:34.436Z,20.07
2018-09-18T20:20:02.752Z,28.20
2018-09-18T20:22:31.090Z,22.80
2018-09-18T20:24:59.405Z,17.67
2018-09-18T20:27:27.716Z,17.50
2018-09-18T20:29:56.022Z,24.17
2018-09-18T20:32:24.368Z,11.07
2018-09-18T20:34:52.935Z,15.70
2018-09-18T20:37:21.247Z,19.83
2018-09-18T20:39:49.601Z,17.70
2018-09-18T20:42:17.890Z,15.10
2018-09-18T20:44:46.200Z,25.20
2018-09-18T20:47:14.502Z,27.70
2018-09-18T20:49:42.865Z,23.23
2018-09-18T20:52:11.175Z,25.30
2018-09-18T20:54:39.466Z,19.40
2018-09-18T20:57:08.071Z,21.93
2018-09-18T20:59:42.878Z,17.67
2018-09-18T21:02:11.281Z,16.27
2018-09-18T21:04:39.469Z,17.37
2018-09-18T21:07:07.766Z,18.57
2018-09-18T21:09:36.308Z,24.60
2018-09-18T21:12:04.595Z,24.57
2018-09-18T21:14:32.941Z,21.07
2018-09-18T21:17:01.224Z,20.30
2018-09-18T21:19:29.505Z,15.80
2018-09-18T21:21:57.814Z,14.13
2018-09-18T21:24:26.320Z,20.50
2018-09-18T21:26:54.620Z,23.00
2018-09-18T21:29:23.074Z,17.13
2018-09-18T21:31:51.380Z,19.17
2018-09-18T21:34:19.677Z,20.63
2018-09-18T21:36:47.992Z,18.87
2018-09-18T21:39:16.300Z,19.60
2018-09-18T21:41:44.617Z,17.30
2018-09-18T21:44:12.926Z,10.57
2018-09-18T21:46:41.222Z,10.53
2018-09-18T21:49:09.834Z,15.53
2018-09-18T21:51:38.166Z,17.63
2018-09-18T21:54:06.516Z,14.97
2018-09-18T21:56:34.824Z,10.77
2018-09-18T21:59:03.197Z,11.43
2018-09-18T22:01:31.545Z,15.07
2018-09-18T22:03:59.775Z,19.33
2018-09-18T22:06:28.091Z,11.80
2018-09-18T22:08:56.437Z,10.10
2018-09-18T22:11:24.728Z,13.00
2018-09-18T22:13:59.671Z,13.03
2018-09-18T22:16:27.945Z,13.50
2018-09-18T22:18:56.252Z,10.20
2018-09-18T22:21:24.556Z,12.77
2018-09-18T22:23:52.849Z,15.43
2018-09-18T22:26:21.145Z,14.57
2018-09-18T22:28:49.636Z,13.70
2018-09-18T22:31:17.918Z,12.73
2018-09-18T22:33:46.342Z,10.60
2018-09-18T22:36:14.659Z,15.03
2018-09-18T22:38:42.944Z,11.23
2018-09-18T22:41:11.252Z,10.67
2018-09-18T22:43:39.609Z,11.83
2018-09-18T22:46:07.937Z,12.23
2018-09-18T22:48:36.591Z,11.37
2018-09-18T22:51:04.896Z,14.33
2018-09-18T22:53:33.181Z,12.57
2018-09-18T22:56:01.495Z,10.30
2018-09-18T22:58:29.812Z,10.40
2018-09-18T23:00:58.120Z,12.60
2018-09-18T23:03:26.404Z,11.07
2018-09-18T23:05:54.761Z,10.00
2018-09-18T23:08:23.075Z,12.10
2018-09-18T23:10:51.384Z,12.67
2018-09-18T23:13:19.749Z,15.70
2018-09-18T23:15:48.072Z,9.30
2018-09-18T23:18:16.373Z,14.30
2018-09-18T23:20:44.742Z,9.40
2018-09-18T23:23:13.039Z,11.53
2018-09-18T23:25:41.328Z,9.87
2018-09-18T23:28:09.651Z,9.37
2018-09-18T23:30:37.952Z,12.23
2018-09-18T23:33:06.349Z,8.90
2018-09-18T23:35:34.932Z,9.70
2018-09-18T23:38:03.224Z,11.90
2018-09-18T23:40:31.531Z,9.30
2018-09-18T23:43:00.109Z,9.70
2018-09-18T23:45:28.406Z,9.43
2018-09-18T23:47:56.715Z,12.10
2018-09-18T23:50:25.045Z,10.13
2018-09-18T23:52:53.360Z,10.27
2018-09-18T23:55:21.633Z,8.93
2018-09-18T23:57:56.490Z,11.40
